KGEGCYKA

Guest
Details From KGEG - Spokane Intl
To CYKA - Kamloops
Flight Number -
Tags decoded
Created
Modified
Stats Distance 217 nm / 403 km
Max Altitude 0 ft / 0 m
Waypoints 2
Social Downloads 0
Likes 0
Share VATSIM

Download

Looking for another format? Having issues loading an existing format? Contact us
Advertisement - Login to hide

Notes

Requested: KGEG CYKA

Route

KGEG CYKA

ID Type Via Altitude (ft/m) Position (lat/lon) Dist (leg/tot) Name
O KGEG APT - 0 / 0 47.61972 / -117.53396 - / 0 nm Spokane Intl
O CYKA APT - 0 / 0 50.70187 / -120.44271 217 / 217 nm Kamloops

Altitude Profile

Advertisement - Login to hide

Weather


0- 5 10 15 20 25 30 35+ Temperature / °C

Clouds and Precipitation
Forecast for 2018-10-21 06:00 UTC. Updated 2 hours ago

Ground ~20,000 ft ~40,000 ft Winds

KGEG

Details ICAO KGEG (GEG)
Name Spokane Airport
Region United States
Timezone America/Los_Angeles (UTC-7.0)
Stats Elevation 2,375 ft / 724 m (AMSL)
Location 47.618800° -117.535000°
Runways 2
Magnetic Variation 14.475° E

METAR

KGEG 210453Z 00000KT 10SM CLR 07/00 A3009 RMK AO2 SLP199 T00720000

Decode

TAF

TAF KGEG 202320Z 2100/2124 06004KT P6SM FEW250 FM211400 04004KT 6SM BR VCFG FEW001 FEW250 FM211600 04004KT P6SM FEW250

Decode

Departure Runways

ID Width Length Bearing (true/mag) Surface Threshold Overrun Markings Lighting
03 151 ft / 46 m 11,010 ft / 3,356 m 45.43° / 30.95° CONCRETE 0 ft / 0 m 400 ft / 122 m PREC-APP CENTERLINE EDGE THRESHOLD ALSF-II TDZ REIL-OMNI
07 151 ft / 46 m 8,207 ft / 2,501 m 90.49° / 76.02° ASPHALT 0 ft / 0 m 0 ft / 0 m APP EDGE THRESHOLD REIL-OMNI
21 151 ft / 46 m 11,010 ft / 3,356 m 225.45° / 210.98° CONCRETE 0 ft / 0 m 394 ft / 120 m PREC-APP CENTERLINE EDGE THRESHOLD ALSF-II TDZ REIL-OMNI
25 151 ft / 46 m 8,207 ft / 2,501 m 270.52° / 256.04° ASPHALT 0 ft / 0 m 85 ft / 26 m APP EDGE THRESHOLD REIL-OMNI

CYKA

Details ICAO CYKA (YKA)
Name Kamloops
Region Canada
Timezone America/Vancouver (UTC-7.0)
Stats Elevation 1,131 ft / 345 m (AMSL)
Location 50.702200° -120.445000°
Runways 2
Magnetic Variation 15.944° E

METAR

CYKA 210500Z 14003KT 40SM SCT260 07/05 A3017 RMK CI4 SLP230

Decode

TAF

TAF CYKA 210038Z 2101/2113 VRB03KT P6SM BKN250 RMK NXT FCST BY 210700Z

Decode

Destination Runways

ID Width Length Bearing (true/mag) Surface Threshold Overrun Markings Lighting
04 49 ft / 15 m 2,779 ft / 847 m 61.01° / 45.07° ASPHALT 686 ft / 209 m 0 ft / 0 m VISUAL
08 148 ft / 45 m 7,968 ft / 2,429 m 103.28° / 87.34° ASPHALT 0 ft / 0 m 102 ft / 31 m UK-PREC-APP EDGE THRESHOLD ODALS
22 49 ft / 15 m 2,779 ft / 847 m 241.02° / 225.08° ASPHALT 0 ft / 0 m 0 ft / 0 m VISUAL
26 148 ft / 45 m 7,968 ft / 2,429 m 283.31° / 267.36° ASPHALT 0 ft / 0 m 0 ft / 0 m UK-PREC-APP EDGE THRESHOLD ODALS

Approach Navaids

Runway Type Ident Frequency Range Bearing (true/mag) Slope Elevation
26 LOC-LOC XPP 109.90 MHz 18 nm / 33 km 285.00° / 269.06 ° - 1,133 ft / 345 m (AMSL)

Popular Alternatives